Time;durP1;ratioP1;P1;durP2;ratioP2;P2;SDS_P1;SDS_P2;PMS_P1;PMS_P2;Temp;Humidity;BMP_temperature;BMP_pressure;BME280_temperature;BME280_humidity;BME280_pressure;Samples;Min_cycle;Max_cycle;Signal;HPM_P1;HPM_P2
2023/05/24 00:00:11;;;;;;;22.37;5.80;;;11.60;99.90;;;;;;5071718;28;20176;-62
2023/05/24 00:02:40;;;;;;;26.77;5.80;;;11.50;99.90;;;;;;5071058;28;20180;-62
2023/05/24 00:05:08;;;;;;;23.37;5.77;;;11.50;99.90;;;;;;5071248;28;20568;-60
2023/05/24 00:07:34;;;;;;;23.40;6.70;;;11.50;99.90;;;;;;5071262;28;20165;-62
2023/05/24 00:10:00;;;;;;;28.03;6.60;;;11.50;99.90;;;;;;5070531;28;20169;-62
2023/05/24 00:12:25;;;;;;;21.10;5.87;;;11.50;99.90;;;;;;5070854;28;20456;-62
2023/05/24 00:14:51;;;;;;;29.93;6.37;;;11.50;99.90;;;;;;5070597;28;20468;-62
2023/05/24 00:17:16;;;;;;;33.93;6.67;;;11.60;99.90;;;;;;5070777;28;20435;-62
2023/05/24 00:19:42;;;;;;;23.70;5.53;;;11.60;99.90;;;;;;5073039;28;20225;-62
2023/05/24 00:22:07;;;;;;;21.50;5.20;;;11.60;99.90;;;;;;5073681;28;20168;-62
2023/05/24 00:24:33;;;;;;;23.40;5.87;;;11.50;99.90;;;;;;5071390;28;20508;-62
2023/05/24 00:26:58;;;;;;;22.10;5.27;;;11.50;99.90;;;;;;5072773;28;20342;-62
2023/05/24 00:29:24;;;;;;;22.53;7.03;;;11.60;99.90;;;;;;5073732;28;20184;-62
2023/05/24 00:31:50;;;;;;;28.93;6.77;;;11.60;99.90;;;;;;5073021;28;20537;-62
2023/05/24 00:34:15;;;;;;;24.50;5.27;;;11.50;99.90;;;;;;5071925;28;20169;-62
2023/05/24 00:36:41;;;;;;;19.67;4.67;;;11.50;99.90;;;;;;5071392;28;20607;-62
2023/05/24 00:39:06;;;;;;;21.43;6.07;;;11.50;99.90;;;;;;5071203;28;20438;-62
2023/05/24 00:41:32;;;;;;;19.77;6.17;;;11.50;99.90;;;;;;5072937;28;20181;-63
2023/05/24 00:43:58;;;;;;;21.17;6.20;;;11.50;99.90;;;;;;5071085;28;20462;-62
2023/05/24 00:46:28;;;;;;;24.30;5.13;;;11.50;99.90;;;;;;5069604;28;20176;-62
2023/05/24 00:48:55;;;;;;;21.10;6.13;;;11.50;99.90;;;;;;5070487;28;20466;-62
2023/05/24 00:51:21;;;;;;;19.77;5.70;;;11.50;99.90;;;;;;5071983;28;20177;-62
2023/05/24 00:53:48;;;;;;;21.77;5.63;;;11.50;99.90;;;;;;5070858;28;20560;-62
2023/05/24 00:56:16;;;;;;;25.10;6.17;;;11.50;99.90;;;;;;5069160;28;20291;-61
2023/05/24 00:58:42;;;;;;;23.47;6.63;;;11.50;99.90;;;;;;5072769;28;20180;-62
2023/05/24 01:01:08;;;;;;;18.83;4.80;;;11.50;99.90;;;;;;5073543;28;20184;-62
2023/05/24 01:03:34;;;;;;;24.30;6.03;;;11.50;99.90;;;;;;5072835;28;20180;-62
2023/05/24 01:06:03;;;;;;;24.37;6.53;;;11.50;99.90;;;;;;5073211;28;20188;-61
2023/05/24 01:08:41;;;;;;;22.67;5.97;;;11.50;99.90;;;;;;5073508;28;20172;-62
2023/05/24 01:11:18;;;;;;;25.23;7.63;;;11.50;99.90;;;;;;5070840;28;20184;-61
2023/05/24 01:14:13;;;;;;;25.67;5.50;;;11.50;99.90;;;;;;5069986;28;20180;-62
2023/05/24 01:16:48;;;;;;;22.07;5.13;;;11.50;99.90;;;;;;5068341;28;20232;-62
2023/05/24 01:19:24;;;;;;;23.20;5.80;;;11.50;99.90;;;;;;5069364;28;20230;-62
2023/05/24 01:21:55;;;;;;;20.70;5.67;;;11.50;99.90;;;;;;5068953;28;20636;-61
2023/05/24 01:25:02;;;;;;;18.77;5.80;;;11.40;99.90;;;;;;5069578;28;20401;-62
2023/05/24 01:27:32;;;;;;;19.23;5.57;;;11.40;99.90;;;;;;5069599;28;20177;-61
2023/05/24 01:29:58;;;;;;;30.47;6.80;;;11.40;99.90;;;;;;5071479;28;20173;-61
2023/05/24 01:32:25;;;;;;;22.90;5.40;;;11.40;99.90;;;;;;5072270;28;20168;-61
2023/05/24 01:34:51;;;;;;;17.53;5.77;;;11.40;99.90;;;;;;5072990;28;20206;-62
2023/05/24 01:37:16;;;;;;;25.83;5.60;;;11.40;99.90;;;;;;5073982;28;20264;-60
2023/05/24 01:39:42;;;;;;;21.40;6.13;;;11.40;99.90;;;;;;5073662;28;20176;-61
2023/05/24 01:42:13;;;;;;;20.67;5.30;;;11.40;99.90;;;;;;5073445;28;20200;-61
2023/05/24 01:44:46;;;;;;;30.67;5.93;;;11.40;99.90;;;;;;5073968;28;20195;-62
2023/05/24 01:47:21;;;;;;;24.73;5.27;;;11.40;99.90;;;;;;5072360;28;20613;-61
2023/05/24 01:49:53;;;;;;;29.37;6.40;;;11.40;99.90;;;;;;5074385;28;20164;-61
2023/05/24 01:52:22;;;;;;;21.43;6.70;;;11.40;99.90;;;;;;5072728;28;20172;-62
2023/05/24 01:54:51;;;;;;;19.00;5.57;;;11.40;99.90;;;;;;5071950;28;20540;-61
2023/05/24 01:57:20;;;;;;;24.57;5.93;;;11.40;99.90;;;;;;5074220;28;20187;-61
2023/05/24 01:59:46;;;;;;;21.83;5.50;;;11.40;99.90;;;;;;5072291;28;20473;-61
2023/05/24 02:02:12;;;;;;;23.10;5.63;;;11.40;99.90;;;;;;5073058;28;20165;-61
2023/05/24 02:04:38;;;;;;;24.33;5.50;;;11.40;99.90;;;;;;5071940;28;20165;-63
2023/05/24 02:07:05;;;;;;;27.50;7.10;;;11.40;99.90;;;;;;5076054;28;20179;-62
2023/05/24 02:09:30;;;;;;;24.03;5.57;;;11.40;99.90;;;;;;5076173;28;20389;-63
2023/05/24 02:11:56;;;;;;;22.47;6.03;;;11.40;99.90;;;;;;5076338;28;20522;-61
2023/05/24 02:14:23;;;;;;;18.73;5.53;;;11.40;99.90;;;;;;5074322;28;20536;-62
2023/05/24 02:16:49;;;;;;;28.17;6.80;;;11.40;99.90;;;;;;5074483;28;20200;-61
2023/05/24 02:19:16;;;;;;;20.47;6.33;;;11.40;99.90;;;;;;5073871;28;20318;-62
2023/05/24 02:21:42;;;;;;;17.67;4.40;;;11.40;99.90;;;;;;5072950;28;20168;-62
2023/05/24 02:24:11;;;;;;;20.73;6.33;;;11.40;99.90;;;;;;5073907;28;20548;-62
2023/05/24 02:26:37;;;;;;;16.57;4.87;;;11.40;99.90;;;;;;5073934;28;20184;-61
2023/05/24 02:29:03;;;;;;;26.50;6.43;;;11.40;99.90;;;;;;5073771;28;20297;-62
2023/05/24 02:31:29;;;;;;;23.77;6.87;;;11.50;99.90;;;;;;5073517;28;20271;-62
2023/05/24 02:33:56;;;;;;;25.17;5.70;;;11.40;99.90;;;;;;5074094;28;20609;-63
2023/05/24 02:36:22;;;;;;;25.83;5.57;;;11.40;99.90;;;;;;5073057;28;20211;-61
2023/05/24 02:38:48;;;;;;;23.33;6.30;;;11.40;99.90;;;;;;5074716;28;20428;-61
2023/05/24 02:41:16;;;;;;;25.47;6.57;;;11.40;99.90;;;;;;5075033;28;20169;-58
2023/05/24 02:43:43;;;;;;;18.20;5.40;;;11.40;99.90;;;;;;5074719;28;20271;-61
2023/05/24 02:46:08;;;;;;;22.10;5.73;;;11.30;99.90;;;;;;5074788;28;20241;-62
2023/05/24 02:48:35;;;;;;;24.13;6.13;;;11.30;99.90;;;;;;5074810;28;20165;-60
2023/05/24 02:51:02;;;;;;;29.70;6.50;;;11.30;99.90;;;;;;5074699;28;20173;-61
2023/05/24 02:53:28;;;;;;;28.97;6.77;;;11.30;99.90;;;;;;5075134;28;20233;-61
2023/05/24 02:55:53;;;;;;;25.23;5.83;;;11.30;99.90;;;;;;5076168;28;20299;-61
2023/05/24 02:58:19;;;;;;;26.50;6.23;;;11.30;99.90;;;;;;5076558;28;20330;-58
2023/05/24 03:00:45;;;;;;;22.23;6.97;;;11.30;99.90;;;;;;5075760;28;20160;-59
2023/05/24 03:03:11;;;;;;;24.20;6.17;;;11.30;99.90;;;;;;5075655;28;20251;-60
2023/05/24 03:05:39;;;;;;;18.97;5.43;;;11.30;99.90;;;;;;5075031;28;20548;-61
2023/05/24 03:08:05;;;;;;;20.07;5.67;;;11.30;99.90;;;;;;5075864;28;20208;-62
2023/05/24 03:10:31;;;;;;;22.57;5.30;;;11.30;99.90;;;;;;5076971;28;20391;-59
2023/05/24 03:12:59;;;;;;;25.93;6.10;;;11.30;99.90;;;;;;5076330;28;20181;-61
2023/05/24 03:15:24;;;;;;;22.83;5.83;;;11.30;99.90;;;;;;5074679;28;20215;-62
2023/05/24 03:17:50;;;;;;;21.63;5.20;;;11.30;99.90;;;;;;5074592;28;20164;-61
2023/05/24 03:20:16;;;;;;;20.50;5.00;;;11.30;99.90;;;;;;5076496;28;20212;-60
2023/05/24 03:22:42;;;;;;;19.60;4.97;;;11.30;99.90;;;;;;5076426;28;20171;-59
2023/05/24 03:25:08;;;;;;;29.77;7.20;;;11.30;99.90;;;;;;5076319;28;20238;-61
2023/05/24 03:27:35;;;;;;;25.40;6.07;;;11.30;99.90;;;;;;5075718;28;20172;-61
2023/05/24 03:30:01;;;;;;;27.00;5.80;;;11.30;99.90;;;;;;5075989;28;20176;-62
2023/05/24 03:32:27;;;;;;;20.43;4.97;;;11.30;99.90;;;;;;5076429;28;20548;-61
2023/05/24 03:34:53;;;;;;;25.00;6.23;;;11.30;99.90;;;;;;5073977;28;20228;-62
2023/05/24 03:37:18;;;;;;;20.83;6.47;;;11.30;99.90;;;;;;5073091;28;20169;-62
2023/05/24 03:39:44;;;;;;;23.47;6.77;;;11.20;99.90;;;;;;5072901;28;20227;-60
2023/05/24 03:42:10;;;;;;;18.60;5.03;;;11.30;99.90;;;;;;5073574;28;20200;-60
2023/05/24 03:44:37;;;;;;;25.30;5.70;;;11.20;99.90;;;;;;5072970;28;20176;-61
2023/05/24 03:47:03;;;;;;;16.43;4.77;;;11.20;99.90;;;;;;5073036;28;20298;-61
2023/05/24 03:49:29;;;;;;;27.37;5.23;;;11.20;99.90;;;;;;5071426;28;20271;-61
2023/05/24 03:51:55;;;;;;;24.90;6.97;;;11.30;99.90;;;;;;5071467;28;20180;-60
2023/05/24 03:54:39;;;;;;;24.47;7.13;;;11.30;99.90;;;;;;5074988;28;20179;-62
2023/05/24 03:57:05;;;;;;;31.27;7.23;;;11.30;99.90;;;;;;5072366;28;20177;-60
2023/05/24 03:59:31;;;;;;;20.73;5.40;;;11.30;99.90;;;;;;5071122;28;20177;-61
2023/05/24 04:01:57;;;;;;;19.50;7.47;;;11.30;99.90;;;;;;5067714;28;20196;-62
2023/05/24 04:04:23;;;;;;;27.43;6.50;;;11.30;99.90;;;;;;5070015;28;20473;-62
2023/05/24 04:06:49;;;;;;;20.60;6.00;;;11.30;99.90;;;;;;5070073;28;20200;-62
2023/05/24 04:09:15;;;;;;;29.80;7.17;;;11.40;99.90;;;;;;5070663;28;20354;-61
2023/05/24 04:11:41;;;;;;;29.43;8.83;;;11.30;99.90;;;;;;5070295;28;20183;-61
2023/05/24 04:14:06;;;;;;;23.43;5.30;;;11.30;99.90;;;;;;5070995;28;20173;-61
2023/05/24 04:16:38;;;;;;;28.63;6.10;;;11.30;99.90;;;;;;5069264;28;20239;-61
2023/05/24 04:19:03;;;;;;;26.97;5.90;;;11.20;99.90;;;;;;5069303;28;20319;-61
2023/05/24 04:21:30;;;;;;;23.27;6.57;;;11.30;99.90;;;;;;5068679;28;20165;-61
2023/05/24 04:23:59;;;;;;;23.17;6.70;;;11.30;99.90;;;;;;5067283;28;20208;-59
2023/05/24 04:26:24;;;;;;;26.33;6.10;;;11.20;99.90;;;;;;5067315;28;20177;-61
2023/05/24 04:28:50;;;;;;;24.83;6.07;;;11.30;99.90;;;;;;5067772;28;20452;-61
2023/05/24 04:31:16;;;;;;;20.03;5.60;;;11.30;99.90;;;;;;5068051;28;20172;-61
2023/05/24 04:33:41;;;;;;;21.47;6.27;;;11.30;99.90;;;;;;5067772;28;20183;-61
2023/05/24 04:36:10;;;;;;;24.97;6.30;;;11.20;99.90;;;;;;5069410;28;20241;-61
2023/05/24 04:38:37;;;;;;;24.63;6.67;;;11.20;99.90;;;;;;5068102;28;20211;-57
2023/05/24 04:41:04;;;;;;;29.03;6.43;;;11.20;99.90;;;;;;5066821;28;20173;-59
2023/05/24 04:43:31;;;;;;;23.80;5.87;;;11.10;99.90;;;;;;5067104;28;20172;-61
2023/05/24 04:45:56;;;;;;;30.77;6.47;;;11.20;99.90;;;;;;5064659;28;20271;-60
2023/05/24 04:48:23;;;;;;;25.90;5.77;;;11.20;99.90;;;;;;5063656;28;20183;-60
2023/05/24 04:50:53;;;;;;;29.53;5.57;;;11.10;99.90;;;;;;5064011;28;20253;-62
2023/05/24 04:53:22;;;;;;;24.97;6.23;;;11.10;99.90;;;;;;5065191;28;20236;-62
2023/05/24 04:55:48;;;;;;;21.47;6.17;;;11.10;99.90;;;;;;5066307;28;20196;-61
2023/05/24 04:58:13;;;;;;;22.40;6.00;;;11.20;99.90;;;;;;5063027;28;20263;-61
2023/05/24 05:00:39;;;;;;;27.50;6.90;;;11.20;99.90;;;;;;5065029;28;20263;-60
2023/05/24 05:03:07;;;;;;;18.40;5.40;;;11.10;99.90;;;;;;5062731;28;20165;-59
2023/05/24 05:05:32;;;;;;;19.20;5.87;;;11.20;99.90;;;;;;5065237;28;20256;-62
2023/05/24 05:07:59;;;;;;;23.50;7.17;;;11.10;99.90;;;;;;5064531;28;20260;-62
2023/05/24 05:10:25;;;;;;;27.70;5.80;;;11.20;99.90;;;;;;5064493;28;20460;-61
2023/05/24 05:12:50;;;;;;;21.63;5.80;;;11.20;99.90;;;;;;5064027;28;20632;-61
2023/05/24 05:15:16;;;;;;;25.53;6.57;;;11.20;99.90;;;;;;5062149;28;20250;-61
2023/05/24 05:17:42;;;;;;;25.27;6.17;;;11.20;99.90;;;;;;5059746;28;20519;-61
2023/05/24 05:20:08;;;;;;;19.90;5.97;;;11.10;99.90;;;;;;5060810;28;20283;-61
2023/05/24 05:22:33;;;;;;;25.23;5.67;;;11.10;99.90;;;;;;5060840;28;20405;-61
2023/05/24 05:25:00;;;;;;;28.20;7.43;;;11.10;99.90;;;;;;5061314;28;20532;-61
2023/05/24 05:27:26;;;;;;;23.00;5.67;;;11.10;99.90;;;;;;5060258;28;20261;-62
2023/05/24 05:29:51;;;;;;;20.43;6.10;;;11.10;99.90;;;;;;5060084;28;20511;-62
2023/05/24 05:32:17;;;;;;;20.83;6.53;;;11.10;99.90;;;;;;5062393;28;20602;-62
2023/05/24 05:34:44;;;;;;;24.40;5.73;;;11.10;99.90;;;;;;5064665;28;20456;-62
2023/05/24 05:37:09;;;;;;;22.23;6.60;;;11.10;99.90;;;;;;5062346;28;20237;-62
2023/05/24 05:39:35;;;;;;;23.53;6.80;;;11.20;99.90;;;;;;5060923;28;20564;-62
2023/05/24 05:42:01;;;;;;;20.00;6.70;;;11.20;99.90;;;;;;5062253;28;20243;-61
2023/05/24 05:44:26;;;;;;;24.90;7.23;;;11.10;99.90;;;;;;5062972;28;20540;-62
2023/05/24 05:46:53;;;;;;;22.13;7.43;;;11.20;99.90;;;;;;5063345;28;20165;-62
2023/05/24 05:49:18;;;;;;;18.00;6.40;;;11.10;99.90;;;;;;5060657;28;20245;-62
2023/05/24 05:51:45;;;;;;;16.43;5.43;;;11.20;99.90;;;;;;5060296;28;20168;-61
2023/05/24 05:54:15;;;;;;;25.63;7.57;;;11.20;99.90;;;;;;5058372;28;20200;-62
2023/05/24 05:56:44;;;;;;;26.47;7.57;;;11.20;99.90;;;;;;5057339;28;20212;-62
2023/05/24 05:59:16;;;;;;;21.27;6.37;;;11.20;99.90;;;;;;5056035;28;20671;-62
2023/05/24 06:01:45;;;;;;;24.73;6.97;;;11.20;99.90;;;;;;5057527;28;20168;-61
2023/05/24 06:04:12;;;;;;;32.73;7.83;;;11.20;99.90;;;;;;5057031;28;20482;-62
2023/05/24 06:06:37;;;;;;;53.00;12.10;;;11.20;99.90;;;;;;5054270;28;20180;-62
2023/05/24 06:09:04;;;;;;;21.50;7.10;;;11.20;99.90;;;;;;5054554;28;20420;-62
2023/05/24 06:11:30;;;;;;;41.57;8.27;;;11.20;99.90;;;;;;5054060;28;20176;-59
2023/05/24 06:13:56;;;;;;;23.50;7.40;;;11.20;99.90;;;;;;5053759;28;20173;-61
2023/05/24 06:16:22;;;;;;;38.53;7.53;;;11.20;99.90;;;;;;5052113;28;20486;-59
2023/05/24 06:18:48;;;;;;;18.27;6.10;;;11.30;99.90;;;;;;5053814;28;20400;-62
2023/05/24 06:21:14;;;;;;;26.10;7.00;;;11.30;99.90;;;;;;5053773;28;20195;-61
2023/05/24 06:23:40;;;;;;;26.07;8.13;;;11.30;99.90;;;;;;5053366;28;20161;-61
2023/05/24 06:26:09;;;;;;;26.33;7.00;;;11.30;99.90;;;;;;5052917;28;20203;-62
2023/05/24 06:28:38;;;;;;;30.27;7.03;;;11.30;99.90;;;;;;5055414;28;20246;-62
2023/05/24 06:31:04;;;;;;;27.73;7.60;;;11.30;99.90;;;;;;5053365;28;20196;-61
2023/05/24 06:33:31;;;;;;;34.97;7.47;;;11.40;99.90;;;;;;5055275;28;20165;-61
2023/05/24 06:35:57;;;;;;;25.87;7.77;;;11.40;99.90;;;;;;5055292;28;20288;-62
2023/05/24 06:38:23;;;;;;;29.67;8.63;;;11.40;99.90;;;;;;5055159;28;20180;-61
2023/05/24 06:40:49;;;;;;;33.87;7.63;;;11.40;99.90;;;;;;5055073;28;20416;-62
2023/05/24 06:43:15;;;;;;;28.20;6.97;;;11.40;99.90;;;;;;5055615;28;20536;-61
2023/05/24 06:45:41;;;;;;;32.30;8.60;;;11.40;99.90;;;;;;5057351;28;20517;-62
2023/05/24 06:48:06;;;;;;;28.83;7.97;;;11.50;99.90;;;;;;5059477;28;20161;-62
2023/05/24 06:50:32;;;;;;;31.30;8.37;;;11.50;99.90;;;;;;5055000;28;20308;-62
2023/05/24 06:52:57;;;;;;;26.10;7.20;;;11.50;99.90;;;;;;5060165;28;20173;-62
2023/05/24 06:55:23;;;;;;;31.87;7.17;;;11.60;99.90;;;;;;5060558;28;20200;-58
2023/05/24 06:57:48;;;;;;;30.97;8.00;;;11.60;99.90;;;;;;5060961;28;20161;-62
2023/05/24 07:00:15;;;;;;;30.57;7.63;;;11.60;99.90;;;;;;5057519;28;20594;-62
2023/05/24 07:02:41;;;;;;;30.33;7.00;;;11.70;99.90;;;;;;5058825;28;20165;-62
2023/05/24 07:05:10;;;;;;;26.17;7.03;;;11.70;99.90;;;;;;5059558;28;20744;-62
2023/05/24 07:07:38;;;;;;;29.43;7.40;;;11.80;99.90;;;;;;5058489;28;20620;-62
2023/05/24 07:10:07;;;;;;;24.60;6.60;;;11.80;99.90;;;;;;5056961;28;20229;-61
2023/05/24 07:12:32;;;;;;;22.93;7.27;;;11.80;99.90;;;;;;5036134;28;20279;-61
2023/05/24 07:14:58;;;;;;;27.50;6.87;;;11.80;99.90;;;;;;5039897;28;20441;-61
2023/05/24 07:17:23;;;;;;;30.23;8.50;;;11.80;99.90;;;;;;5040805;28;20420;-61
2023/05/24 07:19:49;;;;;;;33.97;7.40;;;11.90;99.90;;;;;;5038690;28;20837;-61
2023/05/24 07:22:14;;;;;;;21.07;6.53;;;11.90;99.90;;;;;;5039145;28;20173;-61
2023/05/24 07:24:40;;;;;;;20.40;6.10;;;11.90;99.90;;;;;;5036329;28;20166;-61
2023/05/24 07:27:06;;;;;;;19.40;5.30;;;11.90;99.90;;;;;;5035728;28;20332;-61
2023/05/24 07:29:31;;;;;;;27.97;6.90;;;11.90;99.90;;;;;;5038137;28;20443;-59
2023/05/24 07:31:57;;;;;;;33.13;6.83;;;11.90;99.90;;;;;;5040219;28;20619;-61
2023/05/24 07:34:26;;;;;;;19.83;6.33;;;11.90;99.90;;;;;;5037083;28;20178;-61
2023/05/24 07:36:59;;;;;;;33.50;7.93;;;11.90;99.90;;;;;;5038643;28;20215;-61
2023/05/24 07:39:26;;;;;;;20.10;6.00;;;11.90;99.90;;;;;;5038356;28;20413;-61
2023/05/24 07:41:53;;;;;;;15.57;5.60;;;11.90;99.90;;;;;;5040381;28;20301;-60
2023/05/24 07:44:18;;;;;;;23.17;7.03;;;12.00;99.90;;;;;;5036640;28;20470;-61
2023/05/24 07:46:45;;;;;;;23.27;6.47;;;12.00;99.90;;;;;;5035160;28;20284;-61
2023/05/24 07:49:10;;;;;;;15.60;5.07;;;12.00;99.90;;;;;;5036645;28;20228;-61
2023/05/24 07:51:37;;;;;;;19.33;6.40;;;12.00;99.90;;;;;;5036288;28;20174;-61
2023/05/24 07:54:02;;;;;;;23.93;7.00;;;12.00;99.90;;;;;;5037496;28;20177;-61
2023/05/24 07:56:28;;;;;;;18.67;5.63;;;12.00;99.90;;;;;;5039999;28;20386;-60
2023/05/24 07:58:58;;;;;;;17.93;5.07;;;12.00;99.90;;;;;;5038875;28;20177;-61
2023/05/24 08:01:24;;;;;;;23.30;5.33;;;12.00;99.90;;;;;;5040928;28;20570;-61
2023/05/24 08:03:49;;;;;;;21.33;7.10;;;12.10;99.90;;;;;;5039826;28;20256;-61
2023/05/24 08:06:15;;;;;;;25.33;6.73;;;12.10;99.90;;;;;;5038742;28;20269;-61
2023/05/24 08:08:41;;;;;;;25.60;7.13;;;12.10;99.90;;;;;;5037987;28;20375;-61
2023/05/24 08:11:09;;;;;;;30.33;7.30;;;12.10;99.90;;;;;;5036752;28;20234;-61
2023/05/24 08:13:34;;;;;;;25.10;6.07;;;12.10;99.90;;;;;;5038394;28;20213;-62
2023/05/24 08:16:00;;;;;;;18.47;5.73;;;12.10;99.90;;;;;;5040000;28;20235;-60
2023/05/24 08:18:26;;;;;;;19.27;6.23;;;12.10;99.90;;;;;;5047171;28;20169;-61
2023/05/24 08:20:51;;;;;;;22.73;6.77;;;12.10;99.90;;;;;;5047514;28;20687;-61
2023/05/24 08:23:17;;;;;;;17.03;5.83;;;12.10;99.90;;;;;;5048070;28;20325;-61
2023/05/24 08:25:43;;;;;;;20.83;6.00;;;12.20;99.90;;;;;;5049058;28;20204;-62
2023/05/24 08:28:09;;;;;;;23.80;7.23;;;12.20;99.90;;;;;;5047522;28;20171;-61
2023/05/24 08:30:36;;;;;;;18.73;5.33;;;12.20;99.90;;;;;;5040394;28;20553;-61
2023/05/24 08:33:01;;;;;;;32.07;6.63;;;12.30;99.90;;;;;;5034256;28;20540;-61
2023/05/24 08:35:27;;;;;;;23.60;7.60;;;12.30;99.90;;;;;;5035586;28;20292;-60
2023/05/24 08:37:53;;;;;;;20.93;6.83;;;12.30;99.90;;;;;;5034212;28;20170;-61
2023/05/24 08:40:19;;;;;;;17.00;5.83;;;12.30;99.90;;;;;;5033456;28;20433;-61
2023/05/24 08:42:45;;;;;;;22.67;6.63;;;12.30;99.90;;;;;;5030196;28;20217;-61
2023/05/24 08:45:13;;;;;;;19.47;5.80;;;12.30;99.90;;;;;;5029599;28;20439;-66
2023/05/24 08:47:39;;;;;;;19.57;5.70;;;12.30;99.90;;;;;;5028536;28;20188;-67
2023/05/24 08:50:07;;;;;;;20.27;5.23;;;12.40;99.90;;;;;;5027138;28;20804;-66
2023/05/24 08:52:33;;;;;;;21.93;7.03;;;12.40;99.90;;;;;;5027801;28;20446;-66
2023/05/24 08:55:00;;;;;;;18.03;6.07;;;12.50;99.90;;;;;;5036115;28;20173;-66
2023/05/24 08:57:38;;;;;;;19.47;6.30;;;12.50;99.90;;;;;;5039039;28;20200;-67
2023/05/24 09:00:10;;;;;;;20.30;6.33;;;12.60;99.90;;;;;;5040461;28;20242;-66
2023/05/24 09:02:40;;;;;;;25.43;7.17;;;12.60;99.90;;;;;;5039762;28;20165;-66
2023/05/24 09:05:11;;;;;;;21.57;5.83;;;12.60;99.90;;;;;;5038547;28;20561;-66
2023/05/24 09:07:37;;;;;;;16.03;5.70;;;12.60;99.90;;;;;;5043004;28;20210;-66
2023/05/24 09:10:07;;;;;;;21.40;6.67;;;12.70;99.90;;;;;;5038133;28;20760;-66
2023/05/24 09:12:35;;;;;;;18.50;6.43;;;12.70;99.90;;;;;;5038269;28;20173;-66
2023/05/24 09:15:02;;;;;;;18.47;6.77;;;12.80;99.90;;;;;;5041204;28;20589;-66
2023/05/24 09:17:33;;;;;;;15.30;4.47;;;12.90;99.90;;;;;;5043638;28;20165;-61
2023/05/24 09:19:58;;;;;;;13.83;4.60;;;13.00;99.90;;;;;;5044550;28;20221;-61
2023/05/24 09:22:27;;;;;;;12.93;4.20;;;13.00;99.90;;;;;;5040401;28;20245;-61
2023/05/24 09:24:57;;;;;;;14.93;4.73;;;13.20;99.90;;;;;;5040875;28;20180;-61
2023/05/24 09:27:22;;;;;;;12.10;4.57;;;13.20;99.90;;;;;;5043070;28;20177;-61
2023/05/24 09:29:50;;;;;;;8.73;4.10;;;13.20;99.90;;;;;;5026127;28;20177;-59
2023/05/24 09:32:17;;;;;;;12.43;3.70;;;13.20;99.90;;;;;;5041169;28;20276;-61
2023/05/24 09:34:46;;;;;;;23.73;4.70;;;13.30;99.90;;;;;;5042957;28;20176;-61
2023/05/24 09:37:15;;;;;;;11.43;4.50;;;13.30;99.90;;;;;;5045587;28;20540;-62
2023/05/24 09:39:41;;;;;;;12.40;4.50;;;13.40;99.90;;;;;;5044283;28;20508;-61
2023/05/24 09:42:07;;;;;;;12.53;4.10;;;13.40;99.90;;;;;;5043683;28;20819;-61
2023/05/24 09:44:32;;;;;;;10.57;3.77;;;13.40;99.90;;;;;;5044573;28;20876;-62
2023/05/24 09:47:05;;;;;;;7.73;3.07;;;13.40;99.90;;;;;;5045201;28;20688;-61
2023/05/24 09:49:31;;;;;;;10.00;3.07;;;13.30;99.90;;;;;;5044221;28;20174;-61
2023/05/24 09:51:57;;;;;;;10.57;3.33;;;13.40;99.90;;;;;;5044477;28;20260;-61
2023/05/24 09:54:26;;;;;;;8.77;3.43;;;13.40;99.90;;;;;;5042473;28;20272;-61
2023/05/24 09:56:51;;;;;;;9.43;3.57;;;13.40;99.90;;;;;;5041807;28;20208;-61
2023/05/24 09:59:17;;;;;;;11.07;3.70;;;13.40;99.90;;;;;;5039968;28;20667;-62
2023/05/24 10:01:45;;;;;;;9.53;3.03;;;13.50;99.90;;;;;;5039293;28;20456;-62
2023/05/24 10:04:11;;;;;;;13.87;3.63;;;13.50;99.90;;;;;;5043130;28;20780;-61
2023/05/24 10:06:37;;;;;;;9.60;4.00;;;13.50;99.90;;;;;;5045480;28;20230;-61
2023/05/24 10:09:05;;;;;;;14.13;4.57;;;13.50;99.90;;;;;;5044188;28;20174;-61
2023/05/24 10:11:36;;;;;;;11.40;5.00;;;13.50;99.90;;;;;;5044720;28;20281;-61
2023/05/24 10:14:04;;;;;;;21.30;5.23;;;13.50;99.90;;;;;;5046017;28;20268;-62
2023/05/24 10:16:30;;;;;;;17.03;4.97;;;13.50;99.90;;;;;;5046455;28;20205;-61
2023/05/24 10:18:55;;;;;;;11.73;3.97;;;13.60;99.90;;;;;;5044758;28;20232;-62
2023/05/24 10:21:23;;;;;;;13.17;4.20;;;13.60;99.90;;;;;;5046132;28;20170;-61
2023/05/24 10:23:53;;;;;;;12.40;4.40;;;13.60;99.90;;;;;;5045770;28;20184;-61
2023/05/24 10:26:20;;;;;;;9.13;3.67;;;13.60;99.90;;;;;;5045753;28;20217;-61
2023/05/24 10:28:53;;;;;;;9.60;3.00;;;13.70;99.90;;;;;;5047338;28;20177;-61
2023/05/24 10:31:31;;;;;;;9.43;4.13;;;13.80;99.90;;;;;;5046282;28;20177;-61
2023/05/24 10:34:00;;;;;;;12.77;4.00;;;13.80;99.90;;;;;;5048303;28;20181;-61
2023/05/24 10:36:26;;;;;;;8.77;3.63;;;13.90;99.90;;;;;;5047388;28;20232;-61
2023/05/24 10:38:52;;;;;;;8.07;3.37;;;13.90;99.90;;;;;;5045613;28;20259;-62
2023/05/24 10:41:18;;;;;;;15.50;3.93;;;14.00;99.90;;;;;;5045020;28;20208;-60
2023/05/24 10:43:47;;;;;;;12.57;3.63;;;14.10;99.90;;;;;;5047243;28;20259;-61
2023/05/24 10:46:16;;;;;;;11.83;3.90;;;14.10;99.90;;;;;;5044649;28;20169;-61
2023/05/24 10:48:41;;;;;;;13.57;4.53;;;14.20;99.90;;;;;;5043778;28;20184;-61
2023/05/24 10:51:32;;;;;;;11.90;4.83;;;14.30;99.90;;;;;;5043166;28;20169;-61
2023/05/24 10:54:09;;;;;;;13.87;4.70;;;14.30;99.90;;;;;;5045005;28;20181;-61
2023/05/24 10:56:40;;;;;;;11.73;3.60;;;14.30;99.90;;;;;;5043519;28;20213;-61
2023/05/24 10:59:07;;;;;;;15.80;4.53;;;14.40;99.90;;;;;;5043903;28;20335;-61
2023/05/24 11:01:33;;;;;;;15.63;3.93;;;14.40;99.90;;;;;;5044561;28;20230;-61
2023/05/24 11:04:17;;;;;;;12.33;4.93;;;14.30;99.90;;;;;;5047079;28;20165;-61
2023/05/24 11:07:08;;;;;;;11.43;3.67;;;14.30;99.90;;;;;;5050356;28;20176;-61
2023/05/24 11:09:35;;;;;;;8.53;3.60;;;14.30;99.90;;;;;;5046626;28;20272;-61
2023/05/24 11:12:07;;;;;;;12.07;4.30;;;14.30;99.90;;;;;;5043629;28;20181;-60
2023/05/24 11:14:37;;;;;;;7.93;3.40;;;14.30;99.90;;;;;;5043343;28;20181;-61
2023/05/24 11:17:04;;;;;;;12.33;4.03;;;14.30;99.90;;;;;;5046078;28;20284;-61
2023/05/24 11:19:37;;;;;;;12.67;4.80;;;14.30;99.90;;;;;;5045671;28;20221;-60
2023/05/24 11:22:07;;;;;;;11.00;4.47;;;14.30;99.90;;;;;;5045098;28;20166;-60
2023/05/24 11:24:33;;;;;;;12.73;3.47;;;14.30;99.90;;;;;;5045056;28;20173;-57
2023/05/24 11:27:01;;;;;;;15.70;4.27;;;14.30;99.90;;;;;;5047248;28;20200;-61
2023/05/24 11:29:28;;;;;;;7.83;3.47;;;14.30;99.90;;;;;;5047022;28;20181;-60
2023/05/24 11:31:56;;;;;;;8.20;2.87;;;14.40;99.90;;;;;;5046159;28;20170;-61
2023/05/24 11:34:23;;;;;;;6.33;2.83;;;14.40;99.90;;;;;;5046558;28;20177;-61
2023/05/24 11:36:51;;;;;;;9.87;3.23;;;14.50;99.90;;;;;;5044307;28;20266;-61
2023/05/24 11:39:17;;;;;;;8.87;2.97;;;14.60;99.90;;;;;;5046384;28;20177;-61
2023/05/24 11:41:44;;;;;;;9.43;3.37;;;14.60;99.90;;;;;;5046547;28;20169;-61
2023/05/24 11:44:10;;;;;;;10.40;4.23;;;14.70;99.90;;;;;;5047636;28;20181;-61
2023/05/24 11:46:38;;;;;;;12.80;4.03;;;14.70;99.90;;;;;;5045086;28;20272;-61
2023/05/24 11:49:05;;;;;;;10.60;3.73;;;14.70;99.90;;;;;;5042123;28;20184;-61
2023/05/24 11:51:33;;;;;;;5.47;2.53;;;14.80;99.90;;;;;;5044020;28;20478;-61
2023/05/24 11:54:00;;;;;;;10.53;4.10;;;14.80;99.90;;;;;;5043514;28;20176;-60
2023/05/24 11:56:28;;;;;;;10.07;3.60;;;14.90;99.90;;;;;;5044992;28;20711;-61
2023/05/24 11:59:12;;;;;;;8.60;3.43;;;14.90;99.90;;;;;;5045181;28;20475;-60
2023/05/24 12:01:38;;;;;;;14.07;4.30;;;14.90;99.90;;;;;;5042620;28;20169;-61
2023/05/24 12:04:08;;;;;;;13.30;3.43;;;14.90;99.90;;;;;;5043917;28;20243;-60
2023/05/24 12:06:43;;;;;;;9.83;2.90;;;14.90;99.90;;;;;;5044424;28;20264;-60
2023/05/24 12:09:12;;;;;;;9.30;3.67;;;14.90;99.90;;;;;;5045740;28;20207;-61
2023/05/24 12:11:47;;;;;;;15.63;4.40;;;14.90;99.90;;;;;;5044040;28;20189;-62
2023/05/24 12:14:14;;;;;;;12.27;3.40;;;14.90;99.90;;;;;;5040915;28;20276;-61
2023/05/24 12:16:44;;;;;;;13.67;4.07;;;14.90;99.90;;;;;;5031818;28;20205;-61
2023/05/24 12:19:21;;;;;;;11.83;4.83;;;14.90;99.90;;;;;;5035940;28;20715;-60
2023/05/24 12:21:49;;;;;;;6.80;3.70;;;14.90;99.90;;;;;;5035760;28;20168;-61
2023/05/24 12:24:16;;;;;;;8.23;3.80;;;15.00;99.90;;;;;;5033354;28;20249;-60
2023/05/24 12:26:47;;;;;;;7.67;3.63;;;15.00;99.90;;;;;;5035476;28;20181;-59
2023/05/24 12:29:13;;;;;;;15.13;4.03;;;15.10;99.90;;;;;;5033771;28;20189;-60
2023/05/24 12:31:48;;;;;;;11.37;3.23;;;15.10;99.90;;;;;;5031231;28;20209;-60
2023/05/24 12:34:18;;;;;;;10.37;3.70;;;15.10;99.90;;;;;;5033328;28;20180;-60
2023/05/24 12:36:45;;;;;;;6.90;2.83;;;15.10;99.90;;;;;;5034465;28;20208;-61
2023/05/24 12:39:31;;;;;;;13.70;4.10;;;15.20;99.90;;;;;;5030626;28;20574;-59